sensor_id;sensor_type;location;lat;lon;timestamp;temperature;humidity
9118;DHT22;4594;50.994;7.126;2022-07-29T00:00:08;22.40;29.50
9118;DHT22;4594;50.994;7.126;2022-07-29T00:02:35;22.40;29.50
9118;DHT22;4594;50.994;7.126;2022-07-29T00:05:01;22.40;29.50
9118;DHT22;4594;50.994;7.126;2022-07-29T00:07:28;22.40;29.50
9118;DHT22;4594;50.994;7.126;2022-07-29T00:09:54;22.40;29.50
9118;DHT22;4594;50.994;7.126;2022-07-29T00:12:21;22.40;29.50
9118;DHT22;4594;50.994;7.126;2022-07-29T00:14:49;22.40;29.60
9118;DHT22;4594;50.994;7.126;2022-07-29T00:17:15;22.40;29.60
9118;DHT22;4594;50.994;7.126;2022-07-29T00:19:40;22.30;29.50
9118;DHT22;4594;50.994;7.126;2022-07-29T00:22:06;22.30;29.50
9118;DHT22;4594;50.994;7.126;2022-07-29T00:24:32;22.30;29.50
9118;DHT22;4594;50.994;7.126;2022-07-29T00:26:58;22.40;29.60
9118;DHT22;4594;50.994;7.126;2022-07-29T00:29:23;22.30;29.60
9118;DHT22;4594;50.994;7.126;2022-07-29T00:31:50;22.30;29.60
9118;DHT22;4594;50.994;7.126;2022-07-29T00:34:16;22.30;29.60
9118;DHT22;4594;50.994;7.126;2022-07-29T00:37:00;22.30;29.60
9118;DHT22;4594;50.994;7.126;2022-07-29T00:39:26;22.30;29.60
9118;DHT22;4594;50.994;7.126;2022-07-29T00:41:51;22.30;29.60
9118;DHT22;4594;50.994;7.126;2022-07-29T00:44:17;22.40;29.70
9118;DHT22;4594;50.994;7.126;2022-07-29T00:46:43;22.30;29.60
9118;DHT22;4594;50.994;7.126;2022-07-29T00:49:09;22.30;29.60
9118;DHT22;4594;50.994;7.126;2022-07-29T00:51:36;22.30;29.60
9118;DHT22;4594;50.994;7.126;2022-07-29T00:54:03;22.40;29.70
9118;DHT22;4594;50.994;7.126;2022-07-29T00:56:31;22.30;29.70
9118;DHT22;4594;50.994;7.126;2022-07-29T00:58:58;22.30;29.70
9118;DHT22;4594;50.994;7.126;2022-07-29T01:01:24;22.30;29.70
9118;DHT22;4594;50.994;7.126;2022-07-29T01:03:50;22.30;29.70
9118;DHT22;4594;50.994;7.126;2022-07-29T01:06:19;22.30;29.70
9118;DHT22;4594;50.994;7.126;2022-07-29T01:08:47;22.20;29.70
9118;DHT22;4594;50.994;7.126;2022-07-29T01:11:14;22.30;29.70
9118;DHT22;4594;50.994;7.126;2022-07-29T01:13:42;22.30;29.80
9118;DHT22;4594;50.994;7.126;2022-07-29T01:16:14;22.20;29.70
9118;DHT22;4594;50.994;7.126;2022-07-29T01:18:53;22.20;29.70
9118;DHT22;4594;50.994;7.126;2022-07-29T01:21:51;22.20;29.70
9118;DHT22;4594;50.994;7.126;2022-07-29T01:24:29;22.20;29.70
9118;DHT22;4594;50.994;7.126;2022-07-29T01:29:45;22.10;29.60
9118;DHT22;4594;50.994;7.126;2022-07-29T01:32:26;22.10;29.60
9118;DHT22;4594;50.994;7.126;2022-07-29T01:35:05;22.00;29.60
9118;DHT22;4594;50.994;7.126;2022-07-29T01:37:43;22.10;29.60
9118;DHT22;4594;50.994;7.126;2022-07-29T01:40:24;22.10;29.60
9118;DHT22;4594;50.994;7.126;2022-07-29T01:42:58;22.10;29.60
9118;DHT22;4594;50.994;7.126;2022-07-29T01:45:39;22.10;29.60
9118;DHT22;4594;50.994;7.126;2022-07-29T01:48:16;22.00;29.50
9118;DHT22;4594;50.994;7.126;2022-07-29T01:51:00;22.00;29.60
9118;DHT22;4594;50.994;7.126;2022-07-29T01:53:47;22.00;29.70
9118;DHT22;4594;50.994;7.126;2022-07-29T01:56:18;22.00;29.70
9118;DHT22;4594;50.994;7.126;2022-07-29T01:58:46;22.00;29.70
9118;DHT22;4594;50.994;7.126;2022-07-29T02:01:16;21.90;29.50
9118;DHT22;4594;50.994;7.126;2022-07-29T02:03:45;21.90;29.60
9118;DHT22;4594;50.994;7.126;2022-07-29T02:06:12;21.90;29.50
9118;DHT22;4594;50.994;7.126;2022-07-29T02:08:43;21.90;29.50
9118;DHT22;4594;50.994;7.126;2022-07-29T02:11:11;21.90;29.50
9118;DHT22;4594;50.994;7.126;2022-07-29T02:13:37;21.90;29.40
9118;DHT22;4594;50.994;7.126;2022-07-29T02:16:06;21.90;29.40
9118;DHT22;4594;50.994;7.126;2022-07-29T02:18:36;22.00;29.50
9118;DHT22;4594;50.994;7.126;2022-07-29T02:21:04;22.00;29.50
9118;DHT22;4594;50.994;7.126;2022-07-29T02:23:32;22.00;29.40
9118;DHT22;4594;50.994;7.126;2022-07-29T02:26:01;22.00;29.50
9118;DHT22;4594;50.994;7.126;2022-07-29T02:28:29;22.00;29.40
9118;DHT22;4594;50.994;7.126;2022-07-29T02:31:00;22.10;29.50
9118;DHT22;4594;50.994;7.126;2022-07-29T02:33:29;22.10;29.50
9118;DHT22;4594;50.994;7.126;2022-07-29T02:35:56;22.10;29.50
9118;DHT22;4594;50.994;7.126;2022-07-29T02:38:25;22.10;29.50
9118;DHT22;4594;50.994;7.126;2022-07-29T02:41:15;22.10;29.50
9118;DHT22;4594;50.994;7.126;2022-07-29T02:43:45;22.10;29.50
9118;DHT22;4594;50.994;7.126;2022-07-29T02:46:18;22.10;29.60
9118;DHT22;4594;50.994;7.126;2022-07-29T02:51:53;22.00;29.40
9118;DHT22;4594;50.994;7.126;2022-07-29T02:54:51;22.00;29.40
9118;DHT22;4594;50.994;7.126;2022-07-29T02:57:36;21.90;29.30
9118;DHT22;4594;50.994;7.126;2022-07-29T03:00:08;21.90;29.30
9118;DHT22;4594;50.994;7.126;2022-07-29T03:02:45;21.80;29.30
9118;DHT22;4594;50.994;7.126;2022-07-29T03:05:19;21.80;29.30
9118;DHT22;4594;50.994;7.126;2022-07-29T03:07:49;21.80;29.30
9118;DHT22;4594;50.994;7.126;2022-07-29T03:10:18;21.70;29.20
9118;DHT22;4594;50.994;7.126;2022-07-29T03:12:44;21.70;29.30
9118;DHT22;4594;50.994;7.126;2022-07-29T03:15:11;21.70;29.30
9118;DHT22;4594;50.994;7.126;2022-07-29T03:17:38;21.70;29.30
9118;DHT22;4594;50.994;7.126;2022-07-29T03:20:06;21.70;29.40
9118;DHT22;4594;50.994;7.126;2022-07-29T03:22:33;21.70;29.40
9118;DHT22;4594;50.994;7.126;2022-07-29T03:25:11;21.70;29.40
9118;DHT22;4594;50.994;7.126;2022-07-29T03:27:37;21.70;29.50
9118;DHT22;4594;50.994;7.126;2022-07-29T03:30:04;21.60;29.40
9118;DHT22;4594;50.994;7.126;2022-07-29T03:32:31;21.60;29.50
9118;DHT22;4594;50.994;7.126;2022-07-29T03:34:57;21.60;29.50
9118;DHT22;4594;50.994;7.126;2022-07-29T03:37:23;21.50;29.50
9118;DHT22;4594;50.994;7.126;2022-07-29T03:39:49;21.50;29.60
9118;DHT22;4594;50.994;7.126;2022-07-29T03:42:19;21.50;29.70
9118;DHT22;4594;50.994;7.126;2022-07-29T03:44:48;21.50;29.70
9118;DHT22;4594;50.994;7.126;2022-07-29T03:47:18;21.50;29.70
9118;DHT22;4594;50.994;7.126;2022-07-29T03:50:00;21.50;29.80
9118;DHT22;4594;50.994;7.126;2022-07-29T03:52:31;21.50;29.90
9118;DHT22;4594;50.994;7.126;2022-07-29T03:54:57;21.50;29.80
9118;DHT22;4594;50.994;7.126;2022-07-29T03:57:25;21.50;29.80
9118;DHT22;4594;50.994;7.126;2022-07-29T03:59:53;21.50;29.90
9118;DHT22;4594;50.994;7.126;2022-07-29T04:02:20;21.50;29.90
9118;DHT22;4594;50.994;7.126;2022-07-29T04:04:47;21.50;29.90
9118;DHT22;4594;50.994;7.126;2022-07-29T04:07:15;21.40;29.90
9118;DHT22;4594;50.994;7.126;2022-07-29T04:09:41;21.90;30.30
9118;DHT22;4594;50.994;7.126;2022-07-29T04:12:07;21.40;30.00
9118;DHT22;4594;50.994;7.126;2022-07-29T04:14:34;21.40;30.00
9118;DHT22;4594;50.994;7.126;2022-07-29T04:17:01;21.40;30.00
9118;DHT22;4594;50.994;7.126;2022-07-29T04:19:28;21.40;30.10
9118;DHT22;4594;50.994;7.126;2022-07-29T04:21:54;21.30;30.00
9118;DHT22;4594;50.994;7.126;2022-07-29T04:24:21;21.40;30.10
9118;DHT22;4594;50.994;7.126;2022-07-29T04:26:47;21.40;30.20
9118;DHT22;4594;50.994;7.126;2022-07-29T04:29:13;21.40;30.20
9118;DHT22;4594;50.994;7.126;2022-07-29T04:31:40;21.30;30.10
9118;DHT22;4594;50.994;7.126;2022-07-29T04:34:07;21.30;30.20
9118;DHT22;4594;50.994;7.126;2022-07-29T04:36:34;21.30;30.20
9118;DHT22;4594;50.994;7.126;2022-07-29T04:39:00;21.30;30.20
9118;DHT22;4594;50.994;7.126;2022-07-29T04:41:26;21.40;30.30
9118;DHT22;4594;50.994;7.126;2022-07-29T04:43:53;21.30;30.30
9118;DHT22;4594;50.994;7.126;2022-07-29T04:46:19;21.30;30.20
9118;DHT22;4594;50.994;7.126;2022-07-29T04:48:48;21.40;30.30
9118;DHT22;4594;50.994;7.126;2022-07-29T04:51:14;21.40;30.40
9118;DHT22;4594;50.994;7.126;2022-07-29T04:53:40;21.40;30.40
9118;DHT22;4594;50.994;7.126;2022-07-29T04:56:06;21.40;30.30
9118;DHT22;4594;50.994;7.126;2022-07-29T04:58:34;21.30;30.30
9118;DHT22;4594;50.994;7.126;2022-07-29T05:01:01;21.40;30.50
9118;DHT22;4594;50.994;7.126;2022-07-29T05:03:27;21.30;30.40
9118;DHT22;4594;50.994;7.126;2022-07-29T05:05:53;21.30;30.40
9118;DHT22;4594;50.994;7.126;2022-07-29T05:08:19;21.30;30.40
9118;DHT22;4594;50.994;7.126;2022-07-29T05:10:45;21.40;30.50
9118;DHT22;4594;50.994;7.126;2022-07-29T05:13:10;21.40;30.50
9118;DHT22;4594;50.994;7.126;2022-07-29T05:15:36;21.40;30.50
9118;DHT22;4594;50.994;7.126;2022-07-29T05:18:03;21.40;30.50
9118;DHT22;4594;50.994;7.126;2022-07-29T05:20:29;21.50;30.70
9118;DHT22;4594;50.994;7.126;2022-07-29T05:22:57;21.60;30.80
9118;DHT22;4594;50.994;7.126;2022-07-29T05:25:24;21.70;30.90
9118;DHT22;4594;50.994;7.126;2022-07-29T05:27:51;21.80;31.00
9118;DHT22;4594;50.994;7.126;2022-07-29T05:30:17;21.90;31.00
9118;DHT22;4594;50.994;7.126;2022-07-29T05:32:43;22.00;30.90
9118;DHT22;4594;50.994;7.126;2022-07-29T05:35:10;22.10;30.90
9118;DHT22;4594;50.994;7.126;2022-07-29T05:37:35;22.10;30.90
9118;DHT22;4594;50.994;7.126;2022-07-29T05:40:02;22.20;30.90
9118;DHT22;4594;50.994;7.126;2022-07-29T05:42:28;22.20;30.90
9118;DHT22;4594;50.994;7.126;2022-07-29T05:44:55;22.30;31.10
9118;DHT22;4594;50.994;7.126;2022-07-29T05:47:21;22.30;31.00
9118;DHT22;4594;50.994;7.126;2022-07-29T05:49:47;22.40;31.00
9118;DHT22;4594;50.994;7.126;2022-07-29T05:52:14;22.50;31.10
9118;DHT22;4594;50.994;7.126;2022-07-29T05:54:39;22.60;31.10
9118;DHT22;4594;50.994;7.126;2022-07-29T05:57:05;22.70;31.20
9118;DHT22;4594;50.994;7.126;2022-07-29T05:59:35;22.60;31.10
9118;DHT22;4594;50.994;7.126;2022-07-29T06:02:02;22.80;31.30
9118;DHT22;4594;50.994;7.126;2022-07-29T06:04:28;22.90;31.30
9118;DHT22;4594;50.994;7.126;2022-07-29T06:06:53;23.00;31.30
9118;DHT22;4594;50.994;7.126;2022-07-29T06:09:19;23.10;31.30
9118;DHT22;4594;50.994;7.126;2022-07-29T06:11:45;23.30;31.40
9118;DHT22;4594;50.994;7.126;2022-07-29T06:14:11;23.40;31.50
9118;DHT22;4594;50.994;7.126;2022-07-29T06:16:36;23.50;31.60
9118;DHT22;4594;50.994;7.126;2022-07-29T06:19:02;23.60;31.60
9118;DHT22;4594;50.994;7.126;2022-07-29T06:21:28;23.80;31.60
9118;DHT22;4594;50.994;7.126;2022-07-29T06:23:53;23.90;31.60
9118;DHT22;4594;50.994;7.126;2022-07-29T06:26:19;23.90;31.50
9118;DHT22;4594;50.994;7.126;2022-07-29T06:28:44;24.10;31.70
9118;DHT22;4594;50.994;7.126;2022-07-29T06:31:10;24.20;31.70
9118;DHT22;4594;50.994;7.126;2022-07-29T06:33:36;24.10;31.60
9118;DHT22;4594;50.994;7.126;2022-07-29T06:36:04;24.40;31.70
9118;DHT22;4594;50.994;7.126;2022-07-29T06:38:31;24.50;31.70
9118;DHT22;4594;50.994;7.126;2022-07-29T06:40:59;24.60;31.70
9118;DHT22;4594;50.994;7.126;2022-07-29T06:43:26;24.80;31.90
9118;DHT22;4594;50.994;7.126;2022-07-29T06:45:57;24.90;32.00
9118;DHT22;4594;50.994;7.126;2022-07-29T06:48:24;25.10;32.00
9118;DHT22;4594;50.994;7.126;2022-07-29T06:50:50;25.30;32.10
9118;DHT22;4594;50.994;7.126;2022-07-29T06:53:15;25.60;32.20
9118;DHT22;4594;50.994;7.126;2022-07-29T06:55:41;25.80;32.10
9118;DHT22;4594;50.994;7.126;2022-07-29T06:58:07;26.10;32.00
9118;DHT22;4594;50.994;7.126;2022-07-29T07:00:34;26.30;32.00
9118;DHT22;4594;50.994;7.126;2022-07-29T07:03:00;26.40;31.90
9118;DHT22;4594;50.994;7.126;2022-07-29T07:05:26;26.50;31.70
9118;DHT22;4594;50.994;7.126;2022-07-29T07:07:52;26.60;31.70
9118;DHT22;4594;50.994;7.126;2022-07-29T07:10:18;26.70;31.70
9118;DHT22;4594;50.994;7.126;2022-07-29T07:12:43;26.70;31.60
9118;DHT22;4594;50.994;7.126;2022-07-29T07:15:09;26.80;31.60
9118;DHT22;4594;50.994;7.126;2022-07-29T07:17:35;26.80;31.50
9118;DHT22;4594;50.994;7.126;2022-07-29T07:20:01;26.80;31.50
9118;DHT22;4594;50.994;7.126;2022-07-29T07:22:26;26.90;31.50
9118;DHT22;4594;50.994;7.126;2022-07-29T07:24:52;26.90;31.50
9118;DHT22;4594;50.994;7.126;2022-07-29T07:27:18;26.90;31.40
9118;DHT22;4594;50.994;7.126;2022-07-29T07:29:43;26.90;31.40
9118;DHT22;4594;50.994;7.126;2022-07-29T07:32:09;26.90;31.40
9118;DHT22;4594;50.994;7.126;2022-07-29T07:34:35;26.90;31.40
9118;DHT22;4594;50.994;7.126;2022-07-29T07:37:00;26.90;31.40
9118;DHT22;4594;50.994;7.126;2022-07-29T07:39:26;26.80;31.40
9118;DHT22;4594;50.994;7.126;2022-07-29T07:41:52;26.90;31.50
9118;DHT22;4594;50.994;7.126;2022-07-29T07:44:18;26.90;31.50
9118;DHT22;4594;50.994;7.126;2022-07-29T07:46:43;26.90;31.50
9118;DHT22;4594;50.994;7.126;2022-07-29T07:49:10;27.10;31.80
9118;DHT22;4594;50.994;7.126;2022-07-29T07:51:36;27.30;32.00
9118;DHT22;4594;50.994;7.126;2022-07-29T07:54:02;27.60;32.10
9118;DHT22;4594;50.994;7.126;2022-07-29T07:56:28;27.90;32.00
9118;DHT22;4594;50.994;7.126;2022-07-29T07:58:53;28.10;32.00
9118;DHT22;4594;50.994;7.126;2022-07-29T08:01:19;28.40;32.00
9118;DHT22;4594;50.994;7.126;2022-07-29T08:03:48;28.50;31.80
9118;DHT22;4594;50.994;7.126;2022-07-29T08:06:14;28.70;31.70
9118;DHT22;4594;50.994;7.126;2022-07-29T08:08:40;28.90;31.70
9118;DHT22;4594;50.994;7.126;2022-07-29T08:11:06;29.10;31.60
9118;DHT22;4594;50.994;7.126;2022-07-29T08:13:32;29.10;31.50
9118;DHT22;4594;50.994;7.126;2022-07-29T08:15:58;29.10;31.40
9118;DHT22;4594;50.994;7.126;2022-07-29T08:18:36;29.10;31.20
9118;DHT22;4594;50.994;7.126;2022-07-29T08:21:03;29.10;31.10
9118;DHT22;4594;50.994;7.126;2022-07-29T08:23:29;29.10;31.00
9118;DHT22;4594;50.994;7.126;2022-07-29T08:26:04;29.00;30.90
9118;DHT22;4594;50.994;7.126;2022-07-29T08:28:38;28.90;30.80
9118;DHT22;4594;50.994;7.126;2022-07-29T08:31:06;28.80;30.80
9118;DHT22;4594;50.994;7.126;2022-07-29T08:33:32;28.80;30.80
9118;DHT22;4594;50.994;7.126;2022-07-29T08:35:58;28.70;30.80
9118;DHT22;4594;50.994;7.126;2022-07-29T08:38:24;28.60;30.90
9118;DHT22;4594;50.994;7.126;2022-07-29T08:40:52;28.60;30.90
9118;DHT22;4594;50.994;7.126;2022-07-29T08:43:18;28.50;30.90
9118;DHT22;4594;50.994;7.126;2022-07-29T08:45:49;28.50;31.00
9118;DHT22;4594;50.994;7.126;2022-07-29T08:48:18;28.40;31.00
9118;DHT22;4594;50.994;7.126;2022-07-29T08:50:47;28.40;31.10
9118;DHT22;4594;50.994;7.126;2022-07-29T08:53:16;28.30;31.00
9118;DHT22;4594;50.994;7.126;2022-07-29T08:55:44;28.30;31.10
9118;DHT22;4594;50.994;7.126;2022-07-29T08:58:13;28.20;31.10
9118;DHT22;4594;50.994;7.126;2022-07-29T09:00:45;28.20;31.20
9118;DHT22;4594;50.994;7.126;2022-07-29T09:03:18;28.10;31.10
9118;DHT22;4594;50.994;7.126;2022-07-29T09:05:46;28.10;31.20
9118;DHT22;4594;50.994;7.126;2022-07-29T09:08:13;28.10;31.30
9118;DHT22;4594;50.994;7.126;2022-07-29T09:10:40;28.10;31.40
9118;DHT22;4594;50.994;7.126;2022-07-29T09:13:06;28.10;31.40
9118;DHT22;4594;50.994;7.126;2022-07-29T09:15:31;28.10;31.40
9118;DHT22;4594;50.994;7.126;2022-07-29T09:17:57;28.10;31.50
9118;DHT22;4594;50.994;7.126;2022-07-29T09:20:27;28.10;31.50
9118;DHT22;4594;50.994;7.126;2022-07-29T09:23:13;28.10;31.50
9118;DHT22;4594;50.994;7.126;2022-07-29T09:25:40;28.10;31.60
9118;DHT22;4594;50.994;7.126;2022-07-29T09:30:54;28.30;31.90
9118;DHT22;4594;50.994;7.126;2022-07-29T09:33:22;28.40;31.90
9118;DHT22;4594;50.994;7.126;2022-07-29T09:36:04;28.50;31.90
9118;DHT22;4594;50.994;7.126;2022-07-29T09:38:32;28.70;32.00
9118;DHT22;4594;50.994;7.126;2022-07-29T09:41:00;28.90;32.00
9118;DHT22;4594;50.994;7.126;2022-07-29T09:43:27;29.00;32.00
9118;DHT22;4594;50.994;7.126;2022-07-29T09:45:53;29.20;32.10
9118;DHT22;4594;50.994;7.126;2022-07-29T09:48:22;29.50;32.60
9118;DHT22;4594;50.994;7.126;2022-07-29T09:50:50;30.00;32.60
9118;DHT22;4594;50.994;7.126;2022-07-29T09:53:33;30.40;32.80
9118;DHT22;4594;50.994;7.126;2022-07-29T09:56:02;31.00;32.60
9118;DHT22;4594;50.994;7.126;2022-07-29T09:58:28;31.40;32.80
9118;DHT22;4594;50.994;7.126;2022-07-29T10:00:55;31.80;32.40
9118;DHT22;4594;50.994;7.126;2022-07-29T10:03:22;32.20;32.30
9118;DHT22;4594;50.994;7.126;2022-07-29T10:06:08;32.50;32.30
9118;DHT22;4594;50.994;7.126;2022-07-29T10:08:39;33.00;32.30
9118;DHT22;4594;50.994;7.126;2022-07-29T10:11:15;33.50;32.80
9118;DHT22;4594;50.994;7.126;2022-07-29T10:13:43;34.00;32.30
9118;DHT22;4594;50.994;7.126;2022-07-29T10:16:11;34.40;32.30
9118;DHT22;4594;50.994;7.126;2022-07-29T10:18:39;34.60;31.90
9118;DHT22;4594;50.994;7.126;2022-07-29T10:21:06;34.70;31.50
9118;DHT22;4594;50.994;7.126;2022-07-29T10:23:33;34.80;31.30
9118;DHT22;4594;50.994;7.126;2022-07-29T10:26:00;34.80;31.00
9118;DHT22;4594;50.994;7.126;2022-07-29T10:28:28;34.80;30.90
9118;DHT22;4594;50.994;7.126;2022-07-29T10:31:01;34.70;30.80
9118;DHT22;4594;50.994;7.126;2022-07-29T10:33:47;34.60;30.60
9118;DHT22;4594;50.994;7.126;2022-07-29T10:42:21;34.10;30.40
9118;DHT22;4594;50.994;7.126;2022-07-29T10:44:50;34.00;30.40
9118;DHT22;4594;50.994;7.126;2022-07-29T10:47:22;33.90;30.50
9118;DHT22;4594;50.994;7.126;2022-07-29T10:50:01;33.80;30.40
9118;DHT22;4594;50.994;7.126;2022-07-29T10:55:37;33.50;30.30
9118;DHT22;4594;50.994;7.126;2022-07-29T10:58:23;33.50;30.40
9118;DHT22;4594;50.994;7.126;2022-07-29T11:00:51;33.30;30.30
9118;DHT22;4594;50.994;7.126;2022-07-29T11:03:46;33.20;30.40
9118;DHT22;4594;50.994;7.126;2022-07-29T11:06:13;33.20;30.50
9118;DHT22;4594;50.994;7.126;2022-07-29T11:08:41;33.10;30.50
9118;DHT22;4594;50.994;7.126;2022-07-29T11:16:19;32.90;30.40
9118;DHT22;4594;50.994;7.126;2022-07-29T11:21:37;32.80;30.30
9118;DHT22;4594;50.994;7.126;2022-07-29T11:26:32;32.70;30.90
9118;DHT22;4594;50.994;7.126;2022-07-29T11:29:16;32.70;30.80
9118;DHT22;4594;50.994;7.126;2022-07-29T11:31:47;32.90;30.80
9118;DHT22;4594;50.994;7.126;2022-07-29T11:34:23;33.10;31.10
9118;DHT22;4594;50.994;7.126;2022-07-29T11:45:07;33.60;30.70
9118;DHT22;4594;50.994;7.126;2022-07-29T11:47:37;33.70;30.50
9118;DHT22;4594;50.994;7.126;2022-07-29T11:50:11;33.70;30.50
9118;DHT22;4594;50.994;7.126;2022-07-29T11:52:42;33.70;30.40
9118;DHT22;4594;50.994;7.126;2022-07-29T11:55:18;33.70;30.40
9118;DHT22;4594;50.994;7.126;2022-07-29T12:00:25;33.60;30.20
9118;DHT22;4594;50.994;7.126;2022-07-29T12:03:03;33.50;30.20
9118;DHT22;4594;50.994;7.126;2022-07-29T12:05:51;33.50;30.20
9118;DHT22;4594;50.994;7.126;2022-07-29T12:08:18;33.40;30.10
9118;DHT22;4594;50.994;7.126;2022-07-29T12:10:47;33.30;30.10
9118;DHT22;4594;50.994;7.126;2022-07-29T12:13:14;33.20;30.10
9118;DHT22;4594;50.994;7.126;2022-07-29T12:15:42;33.10;30.00
9118;DHT22;4594;50.994;7.126;2022-07-29T12:18:17;33.10;30.00
9118;DHT22;4594;50.994;7.126;2022-07-29T12:20:46;33.00;29.90
9118;DHT22;4594;50.994;7.126;2022-07-29T12:23:13;32.90;30.00
9118;DHT22;4594;50.994;7.126;2022-07-29T12:25:42;32.80;29.90
9118;DHT22;4594;50.994;7.126;2022-07-29T12:28:13;32.70;29.90
9118;DHT22;4594;50.994;7.126;2022-07-29T12:30:46;32.70;29.90
9118;DHT22;4594;50.994;7.126;2022-07-29T12:33:21;32.60;29.90
9118;DHT22;4594;50.994;7.126;2022-07-29T12:35:57;32.50;29.90
9118;DHT22;4594;50.994;7.126;2022-07-29T12:38:25;32.40;29.80
9118;DHT22;4594;50.994;7.126;2022-07-29T12:40:53;32.30;29.80
9118;DHT22;4594;50.994;7.126;2022-07-29T12:43:22;32.20;29.80
9118;DHT22;4594;50.994;7.126;2022-07-29T12:45:56;32.20;29.90
9118;DHT22;4594;50.994;7.126;2022-07-29T12:48:39;32.10;30.00
9118;DHT22;4594;50.994;7.126;2022-07-29T12:51:07;32.10;29.80
9118;DHT22;4594;50.994;7.126;2022-07-29T12:53:35;32.00;29.80
9118;DHT22;4594;50.994;7.126;2022-07-29T12:56:02;32.00;29.80
9118;DHT22;4594;50.994;7.126;2022-07-29T12:58:37;32.00;29.90
9118;DHT22;4594;50.994;7.126;2022-07-29T13:01:13;32.00;29.90
9118;DHT22;4594;50.994;7.126;2022-07-29T13:03:56;31.90;29.80
9118;DHT22;4594;50.994;7.126;2022-07-29T13:09:17;31.80;29.70
9118;DHT22;4594;50.994;7.126;2022-07-29T13:11:50;31.80;29.60
9118;DHT22;4594;50.994;7.126;2022-07-29T13:14:35;31.70;29.60
9118;DHT22;4594;50.994;7.126;2022-07-29T13:17:10;31.60;29.60
9118;DHT22;4594;50.994;7.126;2022-07-29T13:19:39;31.50;29.60
9118;DHT22;4594;50.994;7.126;2022-07-29T13:22:08;31.40;29.70
9118;DHT22;4594;50.994;7.126;2022-07-29T13:25:06;31.30;29.70
9118;DHT22;4594;50.994;7.126;2022-07-29T13:27:33;31.30;29.60
9118;DHT22;4594;50.994;7.126;2022-07-29T13:30:04;31.20;29.70
9118;DHT22;4594;50.994;7.126;2022-07-29T13:32:32;31.20;29.70
9118;DHT22;4594;50.994;7.126;2022-07-29T13:35:02;31.20;29.80
9118;DHT22;4594;50.994;7.126;2022-07-29T13:37:30;31.10;29.80
9118;DHT22;4594;50.994;7.126;2022-07-29T13:39:58;31.10;29.80
9118;DHT22;4594;50.994;7.126;2022-07-29T13:42:24;31.10;29.90
9118;DHT22;4594;50.994;7.126;2022-07-29T13:44:51;31.10;29.90
9118;DHT22;4594;50.994;7.126;2022-07-29T13:47:18;31.20;30.00
9118;DHT22;4594;50.994;7.126;2022-07-29T13:49:45;31.20;29.90
9118;DHT22;4594;50.994;7.126;2022-07-29T13:52:11;31.20;29.90
9118;DHT22;4594;50.994;7.126;2022-07-29T13:54:37;31.30;29.90
9118;DHT22;4594;50.994;7.126;2022-07-29T13:57:05;31.30;29.90
9118;DHT22;4594;50.994;7.126;2022-07-29T13:59:32;31.30;29.90
9118;DHT22;4594;50.994;7.126;2022-07-29T14:01:57;31.30;29.90
9118;DHT22;4594;50.994;7.126;2022-07-29T14:04:23;31.40;29.80
9118;DHT22;4594;50.994;7.126;2022-07-29T14:06:49;31.30;29.80
9118;DHT22;4594;50.994;7.126;2022-07-29T14:09:15;31.30;29.70
9118;DHT22;4594;50.994;7.126;2022-07-29T14:11:41;31.30;29.70
9118;DHT22;4594;50.994;7.126;2022-07-29T14:14:07;31.30;29.70
9118;DHT22;4594;50.994;7.126;2022-07-29T14:16:33;31.20;29.70
9118;DHT22;4594;50.994;7.126;2022-07-29T14:19:00;31.20;29.80
9118;DHT22;4594;50.994;7.126;2022-07-29T14:21:25;31.10;29.70
9118;DHT22;4594;50.994;7.126;2022-07-29T14:23:51;31.10;29.70
9118;DHT22;4594;50.994;7.126;2022-07-29T14:26:18;31.00;29.70
9118;DHT22;4594;50.994;7.126;2022-07-29T14:28:43;30.90;29.60
9118;DHT22;4594;50.994;7.126;2022-07-29T14:31:10;30.90;29.70
9118;DHT22;4594;50.994;7.126;2022-07-29T14:33:35;30.80;29.60
9118;DHT22;4594;50.994;7.126;2022-07-29T14:36:01;30.70;29.60
9118;DHT22;4594;50.994;7.126;2022-07-29T14:38:27;30.70;29.70
9118;DHT22;4594;50.994;7.126;2022-07-29T14:40:52;30.60;29.60
9118;DHT22;4594;50.994;7.126;2022-07-29T14:43:18;30.50;29.60
9118;DHT22;4594;50.994;7.126;2022-07-29T14:45:44;30.50;29.60
9118;DHT22;4594;50.994;7.126;2022-07-29T14:48:09;30.40;29.60
9118;DHT22;4594;50.994;7.126;2022-07-29T14:50:37;30.30;29.60
9118;DHT22;4594;50.994;7.126;2022-07-29T14:53:03;30.30;29.60
9118;DHT22;4594;50.994;7.126;2022-07-29T14:55:29;30.20;29.60
9118;DHT22;4594;50.994;7.126;2022-07-29T14:57:55;30.10;29.60
9118;DHT22;4594;50.994;7.126;2022-07-29T15:00:21;30.10;29.70
9118;DHT22;4594;50.994;7.126;2022-07-29T15:02:47;30.00;29.60
9118;DHT22;4594;50.994;7.126;2022-07-29T15:05:13;30.00;29.70
9118;DHT22;4594;50.994;7.126;2022-07-29T15:07:39;29.90;29.70
9118;DHT22;4594;50.994;7.126;2022-07-29T15:10:05;29.80;29.60
9118;DHT22;4594;50.994;7.126;2022-07-29T15:12:32;29.80;29.70
9118;DHT22;4594;50.994;7.126;2022-07-29T15:14:58;29.70;29.70
9118;DHT22;4594;50.994;7.126;2022-07-29T15:17:24;29.70;29.70
9118;DHT22;4594;50.994;7.126;2022-07-29T15:19:50;29.70;29.70
9118;DHT22;4594;50.994;7.126;2022-07-29T15:22:15;29.60;29.70
9118;DHT22;4594;50.994;7.126;2022-07-29T15:24:41;29.60;29.70
9118;DHT22;4594;50.994;7.126;2022-07-29T15:27:07;29.50;29.70
9118;DHT22;4594;50.994;7.126;2022-07-29T15:29:42;29.50;29.70
9118;DHT22;4594;50.994;7.126;2022-07-29T15:32:09;29.50;30.00
9118;DHT22;4594;50.994;7.126;2022-07-29T15:34:36;29.40;29.70
9118;DHT22;4594;50.994;7.126;2022-07-29T15:37:03;29.40;29.80
9118;DHT22;4594;50.994;7.126;2022-07-29T15:39:30;29.30;29.80
9118;DHT22;4594;50.994;7.126;2022-07-29T15:41:56;29.30;29.80
9118;DHT22;4594;50.994;7.126;2022-07-29T15:44:21;29.20;29.80
9118;DHT22;4594;50.994;7.126;2022-07-29T15:46:48;29.20;29.80
9118;DHT22;4594;50.994;7.126;2022-07-29T15:49:30;29.10;29.80
9118;DHT22;4594;50.994;7.126;2022-07-29T15:52:01;29.00;29.80
9118;DHT22;4594;50.994;7.126;2022-07-29T15:54:32;29.00;29.90
9118;DHT22;4594;50.994;7.126;2022-07-29T15:56:59;28.90;29.80
9118;DHT22;4594;50.994;7.126;2022-07-29T15:59:25;28.80;29.80
9118;DHT22;4594;50.994;7.126;2022-07-29T16:01:51;28.80;29.80
9118;DHT22;4594;50.994;7.126;2022-07-29T16:04:17;28.70;29.80
9118;DHT22;4594;50.994;7.126;2022-07-29T16:06:45;28.70;29.90
9118;DHT22;4594;50.994;7.126;2022-07-29T16:09:12;28.60;29.90
9118;DHT22;4594;50.994;7.126;2022-07-29T16:11:39;28.50;29.90
9118;DHT22;4594;50.994;7.126;2022-07-29T16:14:05;28.50;29.90
9118;DHT22;4594;50.994;7.126;2022-07-29T16:16:31;28.40;29.90
9118;DHT22;4594;50.994;7.126;2022-07-29T16:18:57;28.40;29.80
9118;DHT22;4594;50.994;7.126;2022-07-29T16:21:23;28.40;29.90
9118;DHT22;4594;50.994;7.126;2022-07-29T16:23:49;28.30;29.80
9118;DHT22;4594;50.994;7.126;2022-07-29T16:26:15;28.30;29.90
9118;DHT22;4594;50.994;7.126;2022-07-29T16:28:42;28.20;29.80
9118;DHT22;4594;50.994;7.126;2022-07-29T16:31:08;28.20;29.90
9118;DHT22;4594;50.994;7.126;2022-07-29T16:33:34;28.10;29.90
9118;DHT22;4594;50.994;7.126;2022-07-29T16:35:59;28.10;29.90
9118;DHT22;4594;50.994;7.126;2022-07-29T16:38:25;28.00;29.90
9118;DHT22;4594;50.994;7.126;2022-07-29T16:40:51;28.00;30.00
9118;DHT22;4594;50.994;7.126;2022-07-29T16:43:17;28.00;30.00
9118;DHT22;4594;50.994;7.126;2022-07-29T16:45:43;27.90;30.00
9118;DHT22;4594;50.994;7.126;2022-07-29T16:48:09;27.90;30.00
9118;DHT22;4594;50.994;7.126;2022-07-29T16:50:35;27.80;30.00
9118;DHT22;4594;50.994;7.126;2022-07-29T16:53:00;27.80;30.00